Terminal Aerodrome Forecast
Issued by NWS Shreveport, LA

Home | Current Version | Previous Version | Text Only | Print | Product List | Glossary On
Versions: 1 2 3 4 5 6 7 8 9 10 11 12 13 14 15 16 17
000
FTUS44 KSHV 292337
TAFTXK
TAF
KTXK 292337Z 3000/3024 VRB06KT 5SM -TSRA BKN040CB OVC070
     FM300100 22008KT P6SM VCTS BKN040CB OVC120
     FM300800 26007KT 4SM BR BKN100
     FM301800 30007KT P6SM BKN050=

USA.gov is the U.S. government's official web portal to all federal, state and local government web resources and services.